Flight Track Log - Related Links

Times and Time Zones

All times are in EDT time to prevent confusion due to time zone crossing. See the N5191R flight status page for this flight to view local times or setup timezone preferences in your user account.

Time Position Orientation Groundspeed Altitude Reporting Facility
EDT Latitude Longitude Course Direction KTS MPH feet Rate Location/Type
Mon 02:04:00 PM 46.3986 -91.0434 209° Southwest  Level Estimated
Mon 02:05:00 PM 46.3721 -91.0596 203° Southwest  Level FlightAware Approximate
Mon 02:06:00 PM 46.3456 -91.0758 203° Southwest  Level FlightAware Approximate
Mon 02:07:00 PM 46.3206 -91.0966 210° Southwest  Level Estimated
Mon 02:08:00 PM 46.2955 -91.1168 209° Southwest  Level FlightAware Approximate
Mon 02:09:00 PM 46.2703 -91.1370 209° Southwest  Level FlightAware Approximate
Mon 02:09:06 PM 46.3278 -91.1069 208° Southwest 63 72 5,600  Level Minneapolis Center
Mon 02:10:00 PM 46.2451 -91.1572 209° Southwest  Level FlightAware Approximate
Mon 02:10:08 PM 46.2950 -91.1289 205° Southwest 98 113 6,000  Level Minneapolis Center
Mon 02:11:00 PM 46.2202 -91.1779 208° Southwest  Level Estimated
Mon 02:11:10 PM 46.2722 -91.1472 209° Southwest 100 115 6,400  Level Minneapolis Center
Mon 02:12:00 PM 46.1948 -91.1975 208° Southwest  Level FlightAware Approximate
Mon 02:12:12 PM 46.2528 -91.1650 212° Southwest 88 101 6,800  Level Minneapolis Center
Mon 02:13:00 PM 46.1694 -91.2171 208° Southwest  Level FlightAware Approximate
Mon 02:13:14 PM 46.2314 -91.1808 207° Southwest 86 99 7,200  Level Minneapolis Center
Mon 02:14:00 PM 46.1440 -91.2366 208° Southwest  Level FlightAware Approximate
Mon 02:14:16 PM 46.2108 -91.1994 212° Southwest 87 100 7,600  Level Minneapolis Center
Mon 02:15:18 PM 46.1919 -91.2178 214° Southwest 84 97 7,900 336 Climbing Minneapolis Center
Mon 02:16:21 PM 46.1639 -91.2392 208° Southwest 89 102 8,300 288 Climbing Minneapolis Center
Mon 02:17:23 PM 46.1417 -91.2558 207° Southwest 91 105 8,500 242 Climbing Minneapolis Center
Mon 02:18:25 PM 46.1211 -91.2753 213° Southwest 90 104 8,800 290 Climbing Minneapolis Center
Mon 02:19:27 PM 46.0981 -91.2928 208° Southwest 92 106 9,100 290 Climbing Minneapolis Center
Mon 02:20:29 PM 46.0756 -91.3092 207° Southwest 91 105 9,400 290 Climbing Minneapolis Center
Mon 02:21:31 PM 46.0536 -91.3269 209° Southwest 91 105 9,700 290 Climbing Minneapolis Center
Mon 02:22:33 PM 46.0275 -91.3497 211° Southwest 91 105 10,000 97 Climbing Minneapolis Center
Mon 02:23:35 PM 46.0028 -91.3697 209° Southwest 96 110 9,900 -48 Descending Minneapolis Center
Mon 02:24:38 PM 45.9811 -91.3919 215° Southwest 97 112 9,900 48 Level Minneapolis Center
Mon 02:25:40 PM 45.9539 -91.4122 207° Southwest 102 117 10,000 48 Climbing Minneapolis Center
Mon 02:26:42 PM 45.9275 -91.4325 208° Southwest 106 122 10,000 -48 Level Minneapolis Center
Mon 02:27:44 PM 45.9006 -91.4519 207° Southwest 108 124 9,900 -97 Descending Minneapolis Center
Mon 02:28:46 PM 45.8694 -91.4764 209° Southwest 107 123 9,800 -48 Descending Minneapolis Center
Mon 02:29:48 PM 45.8450 -91.4981 212° Southwest 106 122 9,800  Level Minneapolis Center
Mon 02:30:50 PM 45.8211 -91.5181 210° Southwest 103 119 9,800 48 Level Minneapolis Center
Mon 02:31:52 PM 45.7953 -91.5375 208° Southwest 103 119 9,900 48 Climbing Minneapolis Center
Mon 02:32:54 PM 45.7708 -91.5581 210° Southwest 103 119 9,900  Level Minneapolis Center
Mon 02:33:56 PM 45.7456 -91.5794 211° Southwest 105 121 9,900 -48 Level Minneapolis Center
Mon 02:34:58 PM 45.7133 -91.6047 209° Southwest 108 124 9,800  Descending Minneapolis Center
Mon 02:36:00 PM 45.6906 -91.6228 209° Southwest 109 125 9,900  Climbing Minneapolis Center
Mon 02:37:02 PM 45.6611 -91.6475 210° Southwest 106 122 9,800 -48 Descending Minneapolis Center
Mon 02:38:05 PM 45.6364 -91.6672 209° Southwest 103 119 9,800  Level Minneapolis Center
Mon 02:39:07 PM 45.6114 -91.6844 206° Southwest 100 115 9,800 48 Level Minneapolis Center
Mon 02:40:09 PM 45.5886 -91.7058 213° Southwest 100 115 9,900 48 Climbing Minneapolis Center
Mon 02:41:12 PM 45.5633 -91.7231 206° Southwest 100 115 9,900  Level Minneapolis Center
Mon 02:42:14 PM 45.5344 -91.7489 212° Southwest 103 119 9,900  Level Minneapolis Center
Mon 02:43:16 PM 45.5097 -91.7700 211° Southwest 103 119 9,900 -48 Level Minneapolis Center
Mon 02:44:18 PM 45.4836 -91.7886 207° Southwest 104 120 9,800 -48 Descending Minneapolis Center
Mon 02:45:20 PM 45.4581 -91.8094 210° Southwest 106 122 9,800 -97 Level Minneapolis Center
Mon 02:46:22 PM 45.4322 -91.8308 210° Southwest 108 124 9,600 -194 Descending Minneapolis Center
Mon 02:47:24 PM 45.4036 -91.8528 208° Southwest 113 130 9,400 -242 Descending Minneapolis Center
Mon 02:48:26 PM 45.3694 -91.8806 210° Southwest 116 133 9,100 -290 Descending Minneapolis Center
Mon 02:49:28 PM 45.3383 -91.9053 209° Southwest 123 142 8,800 -339 Descending Minneapolis Center
Mon 02:50:30 PM 45.3097 -91.9292 210° Southwest 122 140 8,400 -339 Descending Minneapolis Center
Mon 02:51:32 PM 45.2786 -91.9531 208° Southwest 125 144 8,100 -339 Descending Minneapolis Center
Mon 02:52:34 PM 45.2469 -91.9758 207° Southwest 126 145 7,700 -484 Descending Minneapolis Center
Mon 02:53:36 PM 45.2092 -92.0069 210° Southwest 129 148 7,100 -443 Descending Minneapolis Center
Mon 02:55:03 PM 45.1664 -92.0411 209° Southwest 126 145 6,600 -322 Descending Minneapolis Center
Mon 02:56:05 PM 45.1347 -92.0672 210° Southwest 131 151 6,300 -290 Descending Minneapolis Center
Mon 02:57:07 PM 45.1028 -92.0892 206° Southwest 129 148 6,000 -290 Descending Minneapolis Center
Mon 02:58:09 PM 45.0750 -92.1125 211° Southwest 120 138 5,700 -336 Descending Minneapolis Center
Mon 02:59:12 PM 45.0403 -92.1389 208° Southwest 118 136 5,300 -336 Descending Minneapolis Center
Mon 03:00:14 PM 45.0111 -92.1600 207° Southwest 119 137 5,000 -339 Descending Minneapolis Center
Mon 03:01:16 PM 44.9831 -92.1825 210° Southwest 118 136 4,600 -339 Descending Minneapolis Center
Mon 03:02:18 PM 44.9533 -92.2053 208° Southwest 119 137 4,300 -290 Descending Minneapolis Center
Mon 03:03:20 PM 44.9242 -92.2289 210° Southwest 121 139 4,000 -194 Descending Minneapolis Center
Mon 03:04:22 PM 44.8961 -92.2500 208° Southwest 116 133 3,900 -48 Descending Minneapolis Center
Mon 03:05:24 PM 44.8644 -92.2747 209° Southwest 110 127 3,900  Level Minneapolis Center
Mon 03:06:26 PM 44.8378 -92.2969 211° Southwest 110 127 3,900  Level Minneapolis Center
Mon 03:08:00 PM 44.7969 -92.3190 208° Southwest  Level FlightAware Approximate
Mon 03:15:00 PM 44.6261 -92.4405 215° Southwest  Level FlightAware Approximate
Mon 03:16:00 PM 44.6036 -92.4630 215° Southwest  Level FlightAware Approximate
Mon 03:17:00 PM 44.5833 -92.4833 215° Southwest  Level FlightAware Approximate
Mon 03:18:00 PM 44.5894 -92.4850 215° Southwest  Level Estimated
Mon 03:19:00 PM 44.5833 -92.4833 215° Southwest  Level FlightAware Approximate
Mon 03:20:00 PM 44.5894 -92.4850 215° Southwest  Level Estimated
Mon 03:21:00 PM 44.5833 -92.4833 215° Southwest  Level FlightAware Approximate
Mon 03:22:00 PM 44.5894 -92.4850 215° Southwest  Level Estimated
Mon 03:23:00 PM 44.5833 -92.4833 215° Southwest  Level FlightAware Approximate
Mon 03:24:00 PM 44.5894 -92.4850 215° Southwest  Level Estimated
Mon 03:25:00 PM 44.5833 -92.4833 215° Southwest  Level FlightAware Approximate

Login

Don't have an account? Register now (free) for customized features, flight alerts, and more!